Time;durP1;ratioP1;P1;durP2;ratioP2;P2;SDS_P1;SDS_P2;PMS_P1;PMS_P2;Temp;Humidity;BMP_temperature;BMP_pressure;BME280_temperature;BME280_humidity;BME280_pressure;Samples;Min_cycle;Max_cycle;Signal;HPM_P1;HPM_P2
2021/10/12 00:01:04;;;;;;;57.33;31.88;;;7.10;99.90;;;;;;5074010;28;20056;-79
2021/10/12 00:03:30;;;;;;;68.28;35.10;;;7.10;99.90;;;;;;5075001;28;20016;-79
2021/10/12 00:05:56;;;;;;;60.50;31.20;;;7.10;99.90;;;;;;5075020;28;20067;-79
2021/10/12 00:08:21;;;;;;;58.15;32.20;;;7.00;99.90;;;;;;5074880;28;20021;-79
2021/10/12 00:10:47;;;;;;;61.67;33.58;;;7.00;99.90;;;;;;5077195;28;20032;-79
2021/10/12 00:13:13;;;;;;;64.38;32.05;;;7.10;99.90;;;;;;5076171;28;20382;-79
2021/10/12 00:15:38;;;;;;;60.58;32.35;;;7.10;99.90;;;;;;5075935;28;20032;-79
2021/10/12 00:18:04;;;;;;;59.28;32.13;;;7.10;99.90;;;;;;5076052;28;20038;-79
2021/10/12 00:20:30;;;;;;;61.00;31.95;;;7.00;99.90;;;;;;5083508;28;20038;-79
2021/10/12 00:22:55;;;;;;;59.10;30.42;;;7.00;99.90;;;;;;5090860;28;20478;-79
2021/10/12 00:25:21;;;;;;;59.63;28.90;;;7.10;99.90;;;;;;5080173;28;20036;-79
2021/10/12 00:27:46;;;;;;;55.88;29.92;;;7.10;99.90;;;;;;5090720;28;20442;-79
2021/10/12 00:30:12;;;;;;;54.70;28.98;;;7.00;99.90;;;;;;5111473;28;20481;-79
2021/10/12 00:32:38;;;;;;;53.45;27.75;;;7.10;99.90;;;;;;5111736;28;20028;-79
2021/10/12 00:35:04;;;;;;;56.00;28.23;;;7.10;99.90;;;;;;5086942;28;20039;-79
2021/10/12 00:37:30;;;;;;;51.58;30.58;;;7.10;99.90;;;;;;5075615;28;20482;-79
2021/10/12 00:39:56;;;;;;;59.30;31.77;;;7.10;99.90;;;;;;5075550;28;20104;-79
2021/10/12 00:42:22;;;;;;;57.25;30.80;;;7.10;99.90;;;;;;5076287;28;20028;-79
2021/10/12 00:44:48;;;;;;;54.15;30.33;;;7.10;99.90;;;;;;5076347;28;20115;-79
2021/10/12 00:47:13;;;;;;;54.63;29.42;;;7.10;99.90;;;;;;5074466;28;20029;-79
2021/10/12 00:49:39;;;;;;;53.22;28.95;;;7.10;99.90;;;;;;5075437;28;20024;-79
2021/10/12 00:52:05;;;;;;;62.35;30.42;;;7.10;99.90;;;;;;5075478;28;20047;-79
2021/10/12 00:54:31;;;;;;;58.63;30.80;;;7.10;99.90;;;;;;5075313;28;20089;-79
2021/10/12 00:56:57;;;;;;;61.50;31.75;;;7.10;99.90;;;;;;5079602;28;20031;-79
2021/10/12 00:59:22;;;;;;;55.53;29.00;;;7.10;99.90;;;;;;5093407;28;20036;-79
2021/10/12 01:01:48;;;;;;;55.83;28.80;;;7.10;99.90;;;;;;5075277;28;20398;-79
2021/10/12 01:04:14;;;;;;;56.92;29.35;;;7.10;99.90;;;;;;5073952;28;20486;-79
2021/10/12 01:06:40;;;;;;;53.33;30.58;;;7.10;99.90;;;;;;5075123;28;20473;-79
2021/10/12 01:09:06;;;;;;;47.15;26.73;;;7.10;99.90;;;;;;5073849;28;20021;-79
2021/10/12 01:11:34;;;;;;;50.60;26.38;;;7.00;99.90;;;;;;5082510;28;20028;-79
2021/10/12 01:14:01;;;;;;;51.35;25.90;;;7.00;99.90;;;;;;5110240;28;20440;-79
2021/10/12 01:16:27;;;;;;;42.22;24.67;;;6.90;99.90;;;;;;5093487;28;20040;-79
2021/10/12 01:19:03;;;;;;;46.17;23.77;;;6.90;99.90;;;;;;5077007;28;20021;-80
2021/10/12 01:21:37;;;;;;;45.97;25.52;;;6.90;99.90;;;;;;5074988;28;20083;-79
2021/10/12 01:24:04;;;;;;;43.25;23.90;;;6.90;99.90;;;;;;5075076;28;20099;-79
2021/10/12 01:26:29;;;;;;;43.40;24.50;;;6.90;99.90;;;;;;5073486;28;20021;-79
2021/10/12 01:28:55;;;;;;;38.45;23.25;;;6.80;99.90;;;;;;5090548;28;20381;-79
2021/10/12 01:31:25;;;;;;;40.65;23.80;;;6.80;99.90;;;;;;5094660;28;20028;-79
2021/10/12 01:33:52;;;;;;;40.05;22.75;;;6.90;99.90;;;;;;5094601;28;20024;-79
2021/10/12 01:36:17;;;;;;;42.22;22.80;;;6.90;99.90;;;;;;5074590;28;20072;-79
2021/10/12 01:38:43;;;;;;;42.63;24.05;;;6.90;99.90;;;;;;5074564;28;20063;-79
2021/10/12 01:41:09;;;;;;;45.08;24.88;;;6.80;99.90;;;;;;5074016;28;20027;-79
2021/10/12 01:43:35;;;;;;;44.97;25.67;;;6.80;99.90;;;;;;5073146;28;20052;-79
2021/10/12 01:46:02;;;;;;;49.70;26.52;;;6.70;99.90;;;;;;5073180;28;20500;-79
2021/10/12 01:48:28;;;;;;;50.15;25.58;;;6.80;99.90;;;;;;5074327;28;20036;-79
2021/10/12 01:50:53;;;;;;;49.45;27.40;;;6.70;99.90;;;;;;5074280;28;20028;-79
2021/10/12 01:53:19;;;;;;;46.65;25.80;;;6.70;99.90;;;;;;5082109;28;20028;-79
2021/10/12 01:55:45;;;;;;;44.78;23.65;;;6.70;99.90;;;;;;5094379;28;20119;-79
2021/10/12 01:58:10;;;;;;;53.15;26.40;;;6.60;99.90;;;;;;5094039;28;20040;-79
2021/10/12 02:00:36;;;;;;;44.50;23.55;;;6.60;99.90;;;;;;5075130;28;20028;-79
2021/10/12 02:03:02;;;;;;;51.92;27.35;;;6.60;99.90;;;;;;5074028;28;20031;-79
2021/10/12 02:05:27;;;;;;;47.25;25.25;;;6.60;99.90;;;;;;5073901;28;20043;-79
2021/10/12 02:07:53;;;;;;;54.63;26.48;;;6.50;99.90;;;;;;5072644;28;20020;-79
2021/10/12 02:10:19;;;;;;;46.05;23.13;;;6.60;99.90;;;;;;5076650;28;20081;-79
2021/10/12 02:12:46;;;;;;;39.67;20.90;;;6.60;99.90;;;;;;5076554;28;20107;-79
2021/10/12 02:15:11;;;;;;;47.80;24.27;;;6.50;99.90;;;;;;5085236;28;20016;-79
2021/10/12 02:17:37;;;;;;;47.53;22.13;;;6.60;99.90;;;;;;5074266;28;20124;-79
2021/10/12 02:20:04;;;;;;;49.88;24.60;;;6.50;99.90;;;;;;5078443;28;20111;-79
2021/10/12 02:22:30;;;;;;;44.50;21.83;;;6.60;99.90;;;;;;5072380;28;20123;-79
2021/10/12 02:24:56;;;;;;;30.63;17.33;;;6.60;99.90;;;;;;5073245;28;20193;-78
2021/10/12 02:27:22;;;;;;;33.15;18.67;;;6.60;99.90;;;;;;5073615;28;20111;-78
2021/10/12 02:29:49;;;;;;;32.08;17.45;;;6.60;99.90;;;;;;5072175;28;20063;-79
2021/10/12 02:32:15;;;;;;;28.02;16.90;;;6.60;99.90;;;;;;5073519;28;20067;-79
2021/10/12 02:34:40;;;;;;;30.27;17.60;;;6.60;99.90;;;;;;5072098;28;20397;-79
2021/10/12 02:37:06;;;;;;;30.20;17.30;;;6.60;99.90;;;;;;5072140;28;20033;-78
2021/10/12 02:39:32;;;;;;;40.15;20.30;;;6.60;99.90;;;;;;5073610;28;20016;-78
2021/10/12 02:41:57;;;;;;;39.60;19.35;;;6.50;99.90;;;;;;5072291;28;20371;-78
2021/10/12 02:44:23;;;;;;;27.92;16.77;;;6.50;99.90;;;;;;5073288;28;20138;-79
2021/10/12 02:46:50;;;;;;;30.45;17.85;;;6.50;99.90;;;;;;5073249;28;20028;-79
2021/10/12 02:49:15;;;;;;;29.30;16.45;;;6.50;99.90;;;;;;5071999;28;20099;-79
2021/10/12 02:51:41;;;;;;;34.33;17.40;;;6.40;99.90;;;;;;5071890;28;20093;-79
2021/10/12 02:54:07;;;;;;;33.38;16.80;;;6.40;99.90;;;;;;5072752;28;20486;-78
2021/10/12 02:56:33;;;;;;;31.20;17.15;;;6.40;99.90;;;;;;5074733;28;20040;-78
2021/10/12 02:58:58;;;;;;;32.55;17.52;;;6.40;99.90;;;;;;5087363;28;20039;-78
2021/10/12 03:01:24;;;;;;;31.83;18.23;;;6.40;99.90;;;;;;5092440;28;20026;-78
2021/10/12 03:03:50;;;;;;;31.83;18.05;;;6.40;99.90;;;;;;5074972;28;20021;-78
2021/10/12 03:06:15;;;;;;;40.10;21.25;;;6.40;99.90;;;;;;5073403;28;20032;-78
2021/10/12 03:08:41;;;;;;;49.97;24.80;;;6.40;99.90;;;;;;5074667;28;21239;-78
2021/10/12 03:11:07;;;;;;;41.10;20.00;;;6.30;99.90;;;;;;5074600;28;20074;-78
2021/10/12 03:13:32;;;;;;;45.75;20.75;;;6.30;99.90;;;;;;5071593;28;20382;-78
2021/10/12 03:15:58;;;;;;;48.40;22.15;;;6.30;99.90;;;;;;5072870;28;20036;-78
2021/10/12 03:18:24;;;;;;;35.35;19.67;;;6.40;99.90;;;;;;5075568;28;20028;-78
2021/10/12 03:20:49;;;;;;;56.00;25.52;;;6.40;99.90;;;;;;5093032;28;20103;-78
2021/10/12 03:23:15;;;;;;;45.97;24.15;;;6.40;99.90;;;;;;5092988;28;20390;-77
2021/10/12 03:25:41;;;;;;;42.25;22.52;;;6.40;99.90;;;;;;5075243;28;20473;-78
2021/10/12 03:28:06;;;;;;;34.90;16.92;;;6.40;99.90;;;;;;5072734;28;20029;-78
2021/10/12 03:30:32;;;;;;;31.08;18.05;;;6.40;99.90;;;;;;5071495;28;20016;-78
2021/10/12 03:32:57;;;;;;;30.70;18.00;;;6.50;99.90;;;;;;5071423;28;20104;-78
2021/10/12 03:35:30;;;;;;;34.55;18.33;;;6.50;99.90;;;;;;5074218;28;20372;-78
2021/10/12 03:37:56;;;;;;;40.33;21.52;;;6.40;99.90;;;;;;5075911;28;20087;-78
2021/10/12 03:40:22;;;;;;;38.28;21.27;;;6.50;99.90;;;;;;5083307;28;20403;-78
2021/10/12 03:42:48;;;;;;;34.13;18.77;;;6.50;99.90;;;;;;5097021;28;20054;-78
2021/10/12 03:45:14;;;;;;;32.95;16.90;;;6.50;99.90;;;;;;5095763;28;20020;-78
2021/10/12 03:47:39;;;;;;;34.55;18.88;;;6.50;99.90;;;;;;5096965;28;20039;-78
2021/10/12 03:50:05;;;;;;;41.08;20.92;;;6.50;99.90;;;;;;5095069;28;20016;-79
2021/10/12 03:52:31;;;;;;;34.67;18.92;;;6.50;99.90;;;;;;5080838;28;20029;-78
2021/10/12 03:54:57;;;;;;;32.63;18.85;;;6.50;99.90;;;;;;5076516;28;20032;-78
2021/10/12 03:57:22;;;;;;;30.08;17.88;;;6.60;99.90;;;;;;5076227;28;20037;-79
2021/10/12 03:59:48;;;;;;;40.15;18.60;;;6.50;99.90;;;;;;5076307;28;20112;-78
2021/10/12 04:02:14;;;;;;;30.08;17.58;;;6.60;99.90;;;;;;5083401;28;20105;-78
2021/10/12 04:04:39;;;;;;;32.15;16.58;;;6.50;99.90;;;;;;5112269;28;20036;-78
2021/10/12 04:07:05;;;;;;;33.80;17.27;;;6.50;99.90;;;;;;5096634;28;20475;-78
2021/10/12 04:09:31;;;;;;;33.97;17.23;;;6.50;99.90;;;;;;5096526;28;20055;-78
2021/10/12 04:11:57;;;;;;;31.42;17.17;;;6.50;99.90;;;;;;5080617;28;20035;-78
2021/10/12 04:14:23;;;;;;;33.42;17.83;;;6.50;99.90;;;;;;5076132;28;20047;-78
2021/10/12 04:16:48;;;;;;;33.50;18.15;;;6.50;99.90;;;;;;5076017;28;20477;-78
2021/10/12 04:19:15;;;;;;;29.45;17.52;;;6.50;99.90;;;;;;5074804;28;20021;-78
2021/10/12 04:21:41;;;;;;;33.63;17.52;;;6.50;99.90;;;;;;5078477;28;20028;-78
2021/10/12 04:24:06;;;;;;;30.02;19.02;;;6.50;99.90;;;;;;5094677;28;20036;-78
2021/10/12 04:26:32;;;;;;;30.40;17.35;;;6.50;99.90;;;;;;5074767;28;20031;-78
2021/10/12 04:28:58;;;;;;;40.38;20.33;;;6.50;99.90;;;;;;5075794;28;20111;-78
2021/10/12 04:31:24;;;;;;;38.42;19.17;;;6.50;99.90;;;;;;5074577;28;20016;-78
2021/10/12 04:33:49;;;;;;;37.17;19.05;;;6.50;99.90;;;;;;5074670;28;20448;-78
2021/10/12 04:36:15;;;;;;;36.80;18.23;;;6.50;99.90;;;;;;5075730;28;20043;-78
2021/10/12 04:38:41;;;;;;;41.53;20.17;;;6.60;99.90;;;;;;5075913;28;20487;-78
2021/10/12 04:41:08;;;;;;;36.03;19.58;;;6.50;99.90;;;;;;5082897;28;20019;-78
2021/10/12 04:43:35;;;;;;;50.67;24.23;;;6.60;99.90;;;;;;5095808;28;20480;-78
2021/10/12 04:46:00;;;;;;;53.20;26.65;;;6.60;99.90;;;;;;5095845;28;20020;-78
2021/10/12 04:48:26;;;;;;;38.03;21.05;;;6.60;99.90;;;;;;5094426;28;20027;-78
2021/10/12 04:50:54;;;;;;;47.35;24.10;;;6.60;99.90;;;;;;5078057;28;20036;-78
2021/10/12 04:53:21;;;;;;;50.15;27.58;;;6.60;99.90;;;;;;5075190;28;20466;-78
2021/10/12 04:55:47;;;;;;;82.35;39.45;;;6.60;99.90;;;;;;5073964;28;20037;-79
2021/10/12 04:58:12;;;;;;;55.20;27.15;;;6.60;99.90;;;;;;5075454;28;20032;-78
2021/10/12 05:00:38;;;;;;;45.45;22.33;;;6.60;99.90;;;;;;5073863;28;20024;-78
2021/10/12 05:03:05;;;;;;;37.80;20.50;;;6.70;99.90;;;;;;5075169;28;20032;-78
2021/10/12 05:05:31;;;;;;;35.35;19.65;;;6.70;99.90;;;;;;5078067;28;20032;-79
2021/10/12 05:08:03;;;;;;;40.17;21.30;;;6.70;99.90;;;;;;5091822;28;20024;-78
2021/10/12 05:10:28;;;;;;;40.70;21.30;;;6.70;99.90;;;;;;5081454;28;20470;-78
2021/10/12 05:12:54;;;;;;;36.08;20.13;;;6.70;99.90;;;;;;5089857;28;20066;-78
2021/10/12 05:15:25;;;;;;;38.47;19.30;;;6.70;99.90;;;;;;5091342;28;20028;-78
2021/10/12 05:17:51;;;;;;;40.47;21.98;;;6.70;99.90;;;;;;5088214;28;20072;-80
2021/10/12 05:20:18;;;;;;;41.53;22.02;;;6.70;99.90;;;;;;5079396;28;20051;-79
2021/10/12 05:22:45;;;;;;;69.22;33.00;;;6.70;99.90;;;;;;5091599;28;20431;-79
2021/10/12 05:25:11;;;;;;;57.20;29.60;;;6.70;99.90;;;;;;5092527;28;20024;-79
2021/10/12 05:27:38;;;;;;;61.10;32.17;;;6.70;99.90;;;;;;5108482;28;20107;-79
2021/10/12 05:30:09;;;;;;;57.40;27.75;;;6.70;99.90;;;;;;5092937;28;20568;-80
2021/10/12 05:32:36;;;;;;;60.35;30.42;;;6.70;99.90;;;;;;5085038;28;20031;-80
2021/10/12 05:35:03;;;;;;;41.40;21.85;;;6.70;99.90;;;;;;5088240;28;20035;-79
2021/10/12 05:37:29;;;;;;;55.30;26.98;;;6.70;99.90;;;;;;5087930;28;20127;-78
2021/10/12 05:39:55;;;;;;;56.97;27.42;;;6.70;99.90;;;;;;5076735;28;20103;-78
2021/10/12 05:42:20;;;;;;;63.33;31.33;;;6.70;99.90;;;;;;5094567;28;20069;-79
2021/10/12 05:44:46;;;;;;;52.17;25.83;;;6.70;99.90;;;;;;5087527;28;20020;-78
2021/10/12 05:47:12;;;;;;;52.85;28.60;;;6.80;99.90;;;;;;5082182;28;20113;-79
2021/10/12 05:49:39;;;;;;;65.78;31.85;;;6.80;99.90;;;;;;5080641;28;20029;-78
2021/10/12 05:52:05;;;;;;;63.85;31.98;;;6.90;99.90;;;;;;5086590;28;20107;-79
2021/10/12 05:54:33;;;;;;;72.68;33.53;;;6.90;99.90;;;;;;5084311;28;20103;-80
2021/10/12 05:57:11;;;;;;;52.75;27.83;;;6.90;99.90;;;;;;5070216;28;20028;-78
2021/10/12 05:59:36;;;;;;;57.60;30.20;;;6.90;99.90;;;;;;5073453;28;20035;-79
2021/10/12 06:02:02;;;;;;;70.05;34.83;;;6.90;99.90;;;;;;5072430;28;20017;-79
2021/10/12 06:04:28;;;;;;;76.68;38.95;;;6.90;99.90;;;;;;5076110;28;20113;-79
2021/10/12 06:06:56;;;;;;;61.15;30.38;;;6.90;99.90;;;;;;5083476;28;20082;-79
2021/10/12 06:09:22;;;;;;;64.07;33.33;;;6.90;99.90;;;;;;5109681;28;20027;-79
2021/10/12 06:11:47;;;;;;;66.47;29.10;;;6.90;99.90;;;;;;5109790;28;20368;-79
2021/10/12 06:14:14;;;;;;;61.83;31.75;;;6.80;99.90;;;;;;5094091;28;20027;-79
2021/10/12 06:16:40;;;;;;;67.00;33.45;;;6.80;99.90;;;;;;5109481;28;20072;-78
2021/10/12 06:19:06;;;;;;;58.25;28.80;;;6.80;99.90;;;;;;5102794;28;21415;-78
2021/10/12 06:21:31;;;;;;;48.08;24.73;;;6.80;99.90;;;;;;5072534;28;20645;-78
2021/10/12 06:23:57;;;;;;;55.35;28.13;;;6.90;99.90;;;;;;5081991;28;20070;-79
2021/10/12 06:26:23;;;;;;;47.67;24.27;;;6.90;99.90;;;;;;5093114;28;20020;-80
2021/10/12 06:28:48;;;;;;;52.60;24.55;;;6.90;99.90;;;;;;5089634;28;20032;-79
2021/10/12 06:31:14;;;;;;;45.47;23.75;;;6.90;99.90;;;;;;5091924;28;20376;-78
2021/10/12 06:33:40;;;;;;;51.25;23.27;;;6.90;99.90;;;;;;5107090;28;20073;-79
2021/10/12 06:36:06;;;;;;;53.97;26.27;;;6.90;99.90;;;;;;5092476;28;20032;-79
2021/10/12 06:38:32;;;;;;;38.60;20.00;;;6.90;99.90;;;;;;5072097;28;20032;-79
2021/10/12 06:40:57;;;;;;;30.17;16.45;;;7.00;99.90;;;;;;5072808;28;20028;-79
2021/10/12 06:43:23;;;;;;;34.35;18.27;;;7.00;99.90;;;;;;5073625;28;20519;-79
2021/10/12 06:45:49;;;;;;;28.95;17.40;;;7.00;99.90;;;;;;5073306;28;20044;-79
2021/10/12 06:48:15;;;;;;;24.75;14.45;;;7.00;99.90;;;;;;5073289;28;20020;-79
2021/10/12 06:50:41;;;;;;;35.92;17.20;;;7.10;99.90;;;;;;5071972;28;20051;-79
2021/10/12 06:53:06;;;;;;;25.25;15.48;;;7.10;99.90;;;;;;5071173;28;20117;-79
2021/10/12 06:55:32;;;;;;;31.52;17.70;;;7.10;99.90;;;;;;5071642;28;20024;-79
2021/10/12 06:57:58;;;;;;;27.55;13.90;;;7.10;99.90;;;;;;5070769;28;20028;-79
2021/10/12 07:00:24;;;;;;;32.92;17.25;;;7.10;99.90;;;;;;5071061;28;20114;-79
2021/10/12 07:02:49;;;;;;;23.02;13.63;;;7.10;99.90;;;;;;5085191;28;20170;-78
2021/10/12 07:05:16;;;;;;;23.83;12.38;;;7.10;99.90;;;;;;5091145;28;20013;-78
2021/10/12 07:07:42;;;;;;;23.83;11.93;;;7.10;99.90;;;;;;5085759;28;20028;-79
2021/10/12 07:10:09;;;;;;;24.77;12.45;;;7.10;99.90;;;;;;5068789;28;20017;-79
2021/10/12 07:12:36;;;;;;;27.75;14.75;;;7.20;99.90;;;;;;5072619;28;20028;-78
2021/10/12 07:15:02;;;;;;;24.95;13.85;;;7.30;99.90;;;;;;5072541;28;20028;-79
2021/10/12 07:17:28;;;;;;;28.88;15.65;;;7.30;99.90;;;;;;5086000;28;20032;-78
2021/10/12 07:19:54;;;;;;;27.52;16.50;;;7.40;99.90;;;;;;5091838;28;20024;-79
2021/10/12 07:22:22;;;;;;;26.40;14.48;;;7.50;99.90;;;;;;5093002;28;20032;-80
2021/10/12 07:24:51;;;;;;;25.65;13.57;;;7.60;99.90;;;;;;5099572;28;20031;-79
2021/10/12 07:27:17;;;;;;;35.85;15.70;;;7.60;99.90;;;;;;5071187;28;20030;-79
2021/10/12 07:29:48;;;;;;;23.92;14.75;;;7.70;99.90;;;;;;5090165;28;20024;-79
2021/10/12 07:32:14;;;;;;;41.55;21.10;;;7.70;99.90;;;;;;5079240;28;20024;-80
2021/10/12 07:34:40;;;;;;;30.77;15.93;;;7.80;99.90;;;;;;5072276;28;20021;-80
2021/10/12 07:37:06;;;;;;;26.88;14.85;;;7.90;99.90;;;;;;5071350;28;20425;-78
2021/10/12 07:39:31;;;;;;;25.92;13.52;;;8.00;99.90;;;;;;5071027;28;20025;-79
2021/10/12 07:41:57;;;;;;;33.65;17.92;;;8.00;99.90;;;;;;5071258;28;20029;-79
2021/10/12 07:44:22;;;;;;;31.77;16.60;;;8.10;99.90;;;;;;5071037;28;20098;-80
2021/10/12 07:46:48;;;;;;;25.95;13.68;;;8.20;99.90;;;;;;5072449;28;20025;-79
2021/10/12 07:49:14;;;;;;;21.92;14.77;;;8.20;99.90;;;;;;5072169;28;20057;-79
2021/10/12 07:51:41;;;;;;;30.85;17.88;;;8.10;99.90;;;;;;5072788;28;20043;-79
2021/10/12 07:54:12;;;;;;;27.08;15.05;;;8.20;99.90;;;;;;5080081;28;20024;-79
2021/10/12 07:56:38;;;;;;;22.52;11.80;;;8.10;99.90;;;;;;5086264;28;20119;-79
2021/10/12 07:59:09;;;;;;;25.90;13.25;;;8.10;99.90;;;;;;5078371;28;20055;-79
2021/10/12 08:01:37;;;;;;;28.48;15.45;;;8.10;99.90;;;;;;5084864;28;20042;-80
2021/10/12 08:04:04;;;;;;;22.98;13.25;;;8.10;99.90;;;;;;5072427;28;20075;-79
2021/10/12 08:06:30;;;;;;;27.02;15.40;;;8.10;99.90;;;;;;5070997;28;20421;-79
2021/10/12 08:08:57;;;;;;;26.75;13.93;;;8.00;99.90;;;;;;5072226;28;20051;-79
2021/10/12 08:11:27;;;;;;;25.08;15.30;;;8.00;99.90;;;;;;5070748;28;20028;-79
2021/10/12 08:13:57;;;;;;;31.75;16.58;;;7.90;99.90;;;;;;5079925;28;20401;-80
2021/10/12 08:16:29;;;;;;;33.83;18.02;;;7.90;99.90;;;;;;5083491;28;20035;-79
2021/10/12 08:18:55;;;;;;;32.15;18.05;;;7.90;99.90;;;;;;5081648;28;20095;-79
2021/10/12 08:21:21;;;;;;;26.17;16.73;;;7.90;99.90;;;;;;5092151;28;20115;-79
2021/10/12 08:23:47;;;;;;;31.45;16.02;;;8.00;99.90;;;;;;5093847;28;20120;-79
2021/10/12 08:26:14;;;;;;;25.95;15.95;;;8.10;99.90;;;;;;5096299;28;20028;-79
2021/10/12 08:28:40;;;;;;;22.17;13.05;;;8.30;99.90;;;;;;5083030;28;20025;-79
2021/10/12 08:31:06;;;;;;;20.70;12.90;;;8.30;99.90;;;;;;5074253;28;20027;-80
2021/10/12 08:33:31;;;;;;;17.92;12.00;;;8.40;99.90;;;;;;5088192;28;20034;-79
2021/10/12 08:35:57;;;;;;;21.80;13.43;;;8.40;99.90;;;;;;5096080;28;20035;-79
2021/10/12 08:38:23;;;;;;;22.27;12.48;;;8.40;99.90;;;;;;5095926;28;20048;-79
2021/10/12 08:40:49;;;;;;;25.70;15.00;;;8.40;99.90;;;;;;5079050;28;20023;-79
2021/10/12 08:43:15;;;;;;;24.33;13.45;;;8.50;99.90;;;;;;5072804;28;20086;-80
2021/10/12 08:45:42;;;;;;;20.73;12.52;;;8.50;99.90;;;;;;5073326;28;20050;-79
2021/10/12 08:48:08;;;;;;;15.90;10.05;;;8.50;99.90;;;;;;5072962;28;20036;-79
2021/10/12 08:50:34;;;;;;;14.63;7.10;;;8.50;99.90;;;;;;5072759;28;20021;-79
2021/10/12 08:53:01;;;;;;;13.57;7.28;;;8.30;99.90;;;;;;5074388;28;20474;-79
2021/10/12 08:55:28;;;;;;;14.90;7.47;;;8.30;99.90;;;;;;5074174;28;20032;-79
2021/10/12 08:57:54;;;;;;;9.13;5.93;;;8.40;99.90;;;;;;5074730;28;20153;-79
2021/10/12 09:00:21;;;;;;;11.23;5.43;;;8.50;99.90;;;;;;5075193;28;20051;-79
2021/10/12 09:03:29;;;;;;;9.93;5.40;;;8.40;99.90;;;;;;5075231;28;20032;-79
2021/10/12 09:05:58;;;;;;;8.25;5.75;;;8.60;99.90;;;;;;5075295;28;20065;-79
2021/10/12 09:08:38;;;;;;;7.72;5.88;;;8.70;99.90;;;;;;5074002;28;20020;-79
2021/10/12 09:11:06;;;;;;;13.18;6.15;;;9.00;99.90;;;;;;5073932;28;20496;-78
2021/10/12 09:13:45;;;;;;;11.38;5.22;;;9.20;99.90;;;;;;5073426;28;20248;-79
2021/10/12 09:16:15;;;;;;;6.35;4.65;;;9.40;99.90;;;;;;5073739;28;20121;-79
2021/10/12 09:18:54;;;;;;;9.00;5.05;;;9.30;99.90;;;;;;5072911;28;20032;-79
2021/10/12 09:21:29;;;;;;;8.82;4.10;;;9.10;99.90;;;;;;5071672;28;20044;-79
2021/10/12 09:24:02;;;;;;;12.50;8.85;;;8.90;99.90;;;;;;5073138;28;20013;-79
2021/10/12 09:26:32;;;;;;;34.25;21.83;;;8.90;99.90;;;;;;5091766;28;20118;-79
2021/10/12 09:29:33;;;;;;;13.32;7.35;;;8.90;99.90;;;;;;5094326;28;20055;-79
2021/10/12 09:32:00;;;;;;;10.07;6.32;;;8.80;99.90;;;;;;5095284;28;20032;-79
2021/10/12 09:34:28;;;;;;;84.82;41.47;;;8.90;99.90;;;;;;5077601;28;20020;-79
2021/10/12 09:36:55;;;;;;;21.67;12.95;;;8.90;99.90;;;;;;5074416;28;20047;-79
2021/10/12 09:39:32;;;;;;;32.40;19.83;;;9.30;99.90;;;;;;5074547;28;20029;-79
2021/10/12 09:42:01;;;;;;;17.70;13.30;;;9.30;99.90;;;;;;5074550;28;20032;-79
2021/10/12 09:44:28;;;;;;;9.45;5.00;;;9.40;99.90;;;;;;5073160;28;20028;-79
2021/10/12 09:47:11;;;;;;;53.75;45.10;;;9.20;99.90;;;;;;5074467;28;20020;-79
2021/10/12 09:49:37;;;;;;;18.25;13.10;;;9.20;99.90;;;;;;5072764;28;20017;-79
2021/10/12 09:52:10;;;;;;;17.95;16.10;;;9.00;99.90;;;;;;5093192;28;20435;-79
2021/10/12 09:54:38;;;;;;;12.95;8.85;;;9.00;99.90;;;;;;5071245;28;20471;-79
2021/10/12 09:57:07;;;;;;;16.58;9.32;;;9.20;99.90;;;;;;5070742;28;20032;-79
2021/10/12 09:59:34;;;;;;;8.55;5.55;;;9.30;99.90;;;;;;5072491;28;20067;-79
2021/10/12 10:02:01;;;;;;;25.80;15.65;;;9.20;99.90;;;;;;5071710;28;20163;-79
2021/10/12 10:04:28;;;;;;;28.77;17.83;;;9.30;99.90;;;;;;5080573;28;20059;-79
2021/10/12 10:07:04;;;;;;;14.55;11.48;;;9.20;99.40;;;;;;5072731;28;20426;-79
2021/10/12 10:09:33;;;;;;;3.50;2.90;;;9.20;95.40;;;;;;5089800;28;20074;-79
2021/10/12 10:11:59;;;;;;;15.88;13.15;;;9.40;92.60;;;;;;5094214;28;20043;-79
2021/10/12 10:14:25;;;;;;;18.70;9.35;;;9.60;88.00;;;;;;5092881;28;20027;-79
2021/10/12 10:16:52;;;;;;;25.33;15.23;;;9.80;82.70;;;;;;5094016;28;20028;-79
2021/10/12 10:19:23;;;;;;;5.68;3.88;;;10.10;87.20;;;;;;5094127;28;20020;-79
2021/10/12 10:21:49;;;;;;;10.63;6.15;;;10.30;87.40;;;;;;5092006;28;20028;-79
2021/10/12 10:24:22;;;;;;;4.47;3.33;;;10.50;84.30;;;;;;5073559;28;20031;-79
2021/10/12 10:26:49;;;;;;;7.20;3.83;;;10.50;82.20;;;;;;5072405;28;20028;-79
2021/10/12 10:29:22;;;;;;;13.10;8.07;;;10.60;78.60;;;;;;5074644;28;20016;-79
2021/10/12 10:31:55;;;;;;;15.88;7.82;;;10.50;76.60;;;;;;5073475;28;20020;-79
2021/10/12 10:34:32;;;;;;;7.28;2.00;;;10.40;76.30;;;;;;5073430;28;20107;-79
2021/10/12 10:37:16;;;;;;;8.02;4.03;;;10.00;76.60;;;;;;5072156;28;20543;-80
2021/10/12 10:39:43;;;;;;;1.17;0.82;;;9.90;71.70;;;;;;5073231;28;20478;-80
2021/10/12 10:42:29;;;;;;;30.45;10.23;;;9.80;64.00;;;;;;5073419;28;20029;-80
2021/10/12 10:45:04;;;;;;;83.20;37.38;;;9.70;65.40;;;;;;5072523;28;20033;-80
2021/10/12 10:47:46;;;;;;;38.40;21.92;;;9.60;67.10;;;;;;5072301;28;20032;-80
2021/10/12 10:50:26;;;;;;;21.30;9.15;;;9.70;69.10;;;;;;5071956;28;20049;-80
2021/10/12 10:52:57;;;;;;;2.90;1.85;;;9.90;68.70;;;;;;5073184;28;20427;-80
2021/10/12 10:55:23;;;;;;;23.35;8.65;;;10.00;65.40;;;;;;5072751;28;20020;-80
2021/10/12 10:58:01;;;;;;;42.55;12.65;;;10.10;66.20;;;;;;5072985;28;20081;-80
2021/10/12 11:00:27;;;;;;;17.73;6.20;;;10.30;66.90;;;;;;5075721;28;20060;-79
2021/10/12 11:02:55;;;;;;;93.55;36.97;;;10.40;67.90;;;;;;5071792;28;20024;-80
2021/10/12 11:05:36;;;;;;;39.70;17.85;;;10.50;67.10;;;;;;5073350;28;20112;-80
2021/10/12 11:08:15;;;;;;;7.75;4.13;;;10.50;69.00;;;;;;5071777;28;20020;-79
2021/10/12 11:10:43;;;;;;;17.55;8.57;;;10.60;69.40;;;;;;5072971;28;20457;-79
2021/10/12 11:13:09;;;;;;;10.40;4.53;;;10.70;67.80;;;;;;5071615;28;20420;-80
2021/10/12 11:15:49;;;;;;;32.70;13.07;;;10.70;67.30;;;;;;5074868;28;20024;-79
2021/10/12 11:18:15;;;;;;;26.50;10.10;;;10.80;67.20;;;;;;5071591;28;20017;-80
2021/10/12 11:20:47;;;;;;;20.90;8.73;;;11.00;67.50;;;;;;5071506;28;20035;-80
2021/10/12 11:23:19;;;;;;;8.48;3.22;;;11.10;65.90;;;;;;5071742;28;20107;-80
2021/10/12 11:26:00;;;;;;;5.32;2.92;;;11.00;66.80;;;;;;5087516;28;20412;-80
2021/10/12 11:28:27;;;;;;;6.85;3.10;;;11.00;69.20;;;;;;5087875;28;20028;-80
2021/10/12 11:30:53;;;;;;;5.20;2.53;;;10.90;69.40;;;;;;5072748;28;20035;-80
2021/10/12 11:33:32;;;;;;;27.85;10.60;;;10.90;70.30;;;;;;5073794;28;20030;-80
2021/10/12 11:36:00;;;;;;;27.60;13.32;;;10.80;69.50;;;;;;5073510;28;20040;-80
2021/10/12 11:38:31;;;;;;;17.50;10.05;;;10.60;69.60;;;;;;5072768;28;20439;-80
2021/10/12 11:40:57;;;;;;;6.25;3.83;;;10.50;71.70;;;;;;5055600;28;20424;-80
2021/10/12 11:43:34;;;;;;;4.28;2.58;;;10.40;73.30;;;;;;5086469;28;20021;-80
2021/10/12 11:46:00;;;;;;;9.93;4.50;;;10.20;79.50;;;;;;5073856;28;20025;-80
2021/10/12 11:48:26;;;;;;;7.50;5.30;;;9.80;94.90;;;;;;5082195;28;20043;-80
2021/10/12 11:50:52;;;;;;;5.80;4.40;;;9.40;99.30;;;;;;5072577;28;20025;-80
2021/10/12 11:53:28;;;;;;;8.57;3.80;;;9.20;99.90;;;;;;5075235;28;20036;-80
2021/10/12 11:56:06;;;;;;;10.00;5.03;;;9.10;99.90;;;;;;5072505;28;20040;-79
2021/10/12 11:58:32;;;;;;;6.03;3.55;;;8.90;99.90;;;;;;5075448;28;20035;-79
2021/10/12 12:00:58;;;;;;;4.75;2.83;;;8.90;99.90;;;;;;5081840;28;20029;-79
2021/10/12 12:03:23;;;;;;;2.95;2.45;;;8.70;99.90;;;;;;5076459;28;20111;-80
2021/10/12 12:05:56;;;;;;;4.07;2.83;;;8.70;99.90;;;;;;5088676;28;20383;-80
2021/10/12 12:08:23;;;;;;;3.33;2.67;;;8.80;99.90;;;;;;5094848;28;20039;-80
2021/10/12 12:10:53;;;;;;;3.80;2.58;;;8.90;99.90;;;;;;5075885;28;20482;-79
2021/10/12 12:13:19;;;;;;;6.15;2.60;;;9.00;99.90;;;;;;5076941;28;20036;-79
2021/10/12 12:15:45;;;;;;;3.45;2.70;;;9.10;99.90;;;;;;5083671;28;20024;-79
2021/10/12 12:18:15;;;;;;;4.65;2.67;;;9.10;97.40;;;;;;5085400;28;20429;-79
2021/10/12 12:21:01;;;;;;;3.92;2.72;;;9.10;91.60;;;;;;5077698;28;20020;-80
2021/10/12 12:23:31;;;;;;;5.00;2.83;;;9.20;94.70;;;;;;5075158;28;20036;-80
2021/10/12 12:25:57;;;;;;;10.25;3.75;;;9.20;95.80;;;;;;5074721;28;20039;-79
2021/10/12 12:28:23;;;;;;;5.80;2.78;;;9.30;97.50;;;;;;5091184;28;20024;-80
2021/10/12 12:30:49;;;;;;;4.00;3.05;;;9.40;96.00;;;;;;5080246;28;20013;-80
2021/10/12 12:33:15;;;;;;;5.72;3.10;;;9.40;95.20;;;;;;5077678;28;20028;-80
2021/10/12 12:35:46;;;;;;;4.82;3.50;;;9.40;93.30;;;;;;5077303;28;20059;-80
2021/10/12 12:38:22;;;;;;;6.38;4.10;;;9.40;96.10;;;;;;5075775;28;20031;-80
2021/10/12 12:40:50;;;;;;;17.58;8.13;;;9.50;96.80;;;;;;5091992;28;20358;-79
2021/10/12 12:43:23;;;;;;;9.55;5.75;;;9.70;99.10;;;;;;5085238;28;20056;-80